Time;durP1;ratioP1;P1;durP2;ratioP2;P2;SDS_P1;SDS_P2;PMS_P1;PMS_P2;Temp;Humidity;BMP_temperature;BMP_pressure;BME280_temperature;BME280_humidity;BME280_pressure;Samples;Min_cycle;Max_cycle;Signal;HPM_P1;HPM_P2
2021/10/21 00:00:57;;;;;;;2.72;1.58;;;;;20.10;98691.00;;;;5068928;28;20233;-79
2021/10/21 00:03:25;;;;;;;3.92;1.65;;;;;20.10;98685.00;;;;5068466;28;20217;-78
2021/10/21 00:05:53;;;;;;;4.63;1.83;;;;;20.10;98693.00;;;;5029797;28;20551;-78
2021/10/21 00:08:20;;;;;;;2.10;1.50;;;;;20.10;98675.00;;;;5032472;28;20191;-79
2021/10/21 00:10:49;;;;;;;7.20;2.20;;;;;20.10;98673.00;;;;5052601;28;20225;-79
2021/10/21 00:13:16;;;;;;;3.22;2.00;;;;;20.10;98638.00;;;;5049916;28;20253;-79
2021/10/21 00:15:43;;;;;;;3.83;2.33;;;;;20.10;98624.00;;;;5048315;28;20203;-80
2021/10/21 00:18:11;;;;;;;3.97;1.60;;;;;20.10;98588.00;;;;5047051;28;20234;-80
2021/10/21 00:20:38;;;;;;;3.22;1.92;;;;;20.10;98565.00;;;;5048124;28;20230;-80
2021/10/21 00:23:07;;;;;;;2.72;2.00;;;;;20.10;98544.00;;;;5039575;28;20204;-80
2021/10/21 00:25:34;;;;;;;2.55;1.48;;;;;20.10;98556.00;;;;5027851;28;20199;-80
2021/10/21 00:28:01;;;;;;;3.85;1.30;;;;;20.20;98546.00;;;;5039124;28;20200;-79
2021/10/21 00:30:28;;;;;;;2.05;1.45;;;;;20.20;98526.00;;;;5064162;28;20195;-79
2021/10/21 00:32:56;;;;;;;2.90;1.58;;;;;20.20;98509.00;;;;5068219;28;20218;-80
2021/10/21 00:35:23;;;;;;;2.72;1.60;;;;;20.20;98490.00;;;;5030904;28;20207;-79
2021/10/21 00:37:51;;;;;;;2.20;1.52;;;;;20.20;98480.00;;;;5045563;28;20230;-79
2021/10/21 00:40:19;;;;;;;1.83;1.73;;;;;20.20;98468.00;;;;5037804;28;20240;-80
2021/10/21 00:42:46;;;;;;;2.42;1.75;;;;;20.30;98456.00;;;;5032026;28;20196;-80
2021/10/21 00:45:14;;;;;;;2.30;1.60;;;;;20.30;98442.00;;;;5031226;28;20219;-79
2021/10/21 00:47:41;;;;;;;2.53;1.85;;;;;20.30;98441.00;;;;5043778;28;20200;-79
2021/10/21 00:50:09;;;;;;;3.25;1.60;;;;;20.30;98423.00;;;;5050990;28;20204;-80
2021/10/21 00:52:37;;;;;;;2.95;1.63;;;;;20.30;98423.00;;;;5048213;28;20207;-80
2021/10/21 00:55:05;;;;;;;2.17;1.33;;;;;20.30;98434.00;;;;5050515;28;20233;-80
2021/10/21 00:57:34;;;;;;;3.28;1.40;;;;;20.20;98407.00;;;;5045942;28;20662;-78
2021/10/21 01:00:01;;;;;;;1.98;1.35;;;;;20.30;98420.00;;;;5065109;28;20231;-80
2021/10/21 01:02:28;;;;;;;1.77;1.40;;;;;20.20;98430.00;;;;5046114;28;20226;-79
2021/10/21 01:04:56;;;;;;;1.92;1.27;;;;;20.20;98472.00;;;;5042594;28;20207;-78
2021/10/21 01:07:23;;;;;;;2.55;1.40;;;;;20.20;98525.00;;;;5051573;28;20214;-79
2021/10/21 01:09:50;;;;;;;2.67;1.05;;;;;20.10;98542.00;;;;5036022;28;20204;-78
2021/10/21 01:12:18;;;;;;;3.13;0.98;;;;;20.00;98545.00;;;;5039498;28;20200;-80
2021/10/21 01:14:46;;;;;;;1.52;0.40;;;;;19.90;98551.00;;;;5032260;28;20212;-80
2021/10/21 01:17:15;;;;;;;1.13;0.55;;;;;19.70;98559.00;;;;5030836;28;20262;-79
2021/10/21 01:19:43;;;;;;;2.15;0.45;;;;;19.60;98573.00;;;;5039892;28;20315;-78
2021/10/21 01:22:12;;;;;;;2.05;0.70;;;;;19.40;98584.00;;;;5059746;28;20191;-76
2021/10/21 01:24:39;;;;;;;2.05;0.65;;;;;19.20;98551.00;;;;5043542;28;20202;-80
2021/10/21 01:27:06;;;;;;;0.60;0.22;;;;;19.10;98537.00;;;;5048888;28;20207;-79
2021/10/21 01:29:33;;;;;;;0.57;0.10;;;;;18.90;98507.00;;;;5037901;28;20239;-79
2021/10/21 01:32:01;;;;;;;1.38;0.30;;;;;18.80;98531.00;;;;5045734;28;20203;-79
2021/10/21 01:34:28;;;;;;;0.77;0.30;;;;;18.70;98530.00;;;;5037615;28;20646;-79
2021/10/21 01:36:56;;;;;;;5.10;0.52;;;;;18.60;98528.00;;;;5038038;28;20729;-79
2021/10/21 01:39:24;;;;;;;0.38;0.20;;;;;18.50;98518.00;;;;5035179;28;20601;-80
2021/10/21 01:41:52;;;;;;;0.68;0.20;;;;;18.40;98518.00;;;;5030260;28;20235;-79
2021/10/21 01:44:19;;;;;;;2.88;0.50;;;;;18.40;98515.00;;;;5030755;28;20606;-79
2021/10/21 01:46:47;;;;;;;0.77;0.40;;;;;18.30;98519.00;;;;5035759;28;20211;-79
2021/10/21 01:49:14;;;;;;;0.82;0.20;;;;;18.20;98502.00;;;;5048588;28;20199;-79
2021/10/21 01:51:41;;;;;;;2.15;0.40;;;;;18.20;98502.00;;;;5050034;28;20200;-79
2021/10/21 01:54:08;;;;;;;1.13;0.40;;;;;18.10;98505.00;;;;5040708;28;20199;-80
2021/10/21 01:56:37;;;;;;;1.00;0.47;;;;;18.10;98501.00;;;;5050386;28;20195;-80
2021/10/21 01:59:04;;;;;;;0.50;0.10;;;;;18.10;98502.00;;;;5058590;28;20199;-80
2021/10/21 02:01:31;;;;;;;1.95;0.85;;;;;18.10;98505.00;;;;5070674;28;20273;-79
2021/10/21 02:03:59;;;;;;;0.63;0.20;;;;;18.00;98494.00;;;;5055943;28;20204;-80
2021/10/21 02:06:26;;;;;;;0.63;0.10;;;;;18.00;98494.00;;;;5030914;28;20200;-79
2021/10/21 02:08:53;;;;;;;0.38;0.13;;;;;17.90;98485.00;;;;5030372;28;20204;-80
2021/10/21 02:11:21;;;;;;;1.13;0.20;;;;;17.90;98481.00;;;;5045352;28;20200;-79
2021/10/21 02:13:49;;;;;;;0.88;0.30;;;;;17.90;98483.00;;;;5046900;28;20203;-80
2021/10/21 02:16:17;;;;;;;0.50;0.25;;;;;17.80;98473.00;;;;5048308;28;20195;-80
2021/10/21 02:18:44;;;;;;;1.40;0.38;;;;;17.80;98476.00;;;;5049872;28;20630;-79
2021/10/21 02:21:11;;;;;;;1.08;0.40;;;;;17.70;98469.00;;;;5048543;28;20234;-79
2021/10/21 02:23:39;;;;;;;0.75;0.28;;;;;17.70;98453.00;;;;5031030;28;20576;-80
2021/10/21 02:26:06;;;;;;;0.55;0.17;;;;;17.70;98456.00;;;;5039495;28;20199;-79
2021/10/21 02:28:33;;;;;;;0.30;0.10;;;;;17.70;98461.00;;;;5049378;28;20203;-80
2021/10/21 02:31:02;;;;;;;0.85;0.20;;;;;17.60;98454.00;;;;5049782;28;20203;-80
2021/10/21 02:33:29;;;;;;;0.85;0.40;;;;;17.60;98457.00;;;;5044885;28;20192;-80
2021/10/21 02:35:56;;;;;;;0.73;0.20;;;;;17.60;98447.00;;;;5049674;28;20204;-78
2021/10/21 02:38:23;;;;;;;0.45;0.25;;;;;17.60;98448.00;;;;5034117;28;20211;-79
2021/10/21 02:40:51;;;;;;;0.80;0.10;;;;;17.50;98435.00;;;;5029113;28;20263;-80
2021/10/21 02:43:18;;;;;;;1.67;0.60;;;;;17.50;98437.00;;;;5029524;28;20202;-79
2021/10/21 02:45:45;;;;;;;1.10;0.45;;;;;17.50;98446.00;;;;5029528;28;20188;-78
2021/10/21 02:48:14;;;;;;;1.70;0.20;;;;;17.50;98435.00;;;;5045865;28;20207;-79
2021/10/21 02:50:41;;;;;;;0.93;0.20;;;;;17.50;98431.00;;;;5049416;28;20227;-79
2021/10/21 02:53:08;;;;;;;0.88;0.17;;;;;17.50;98438.00;;;;5032280;28;20204;-79
2021/10/21 02:55:35;;;;;;;0.70;0.10;;;;;17.50;98423.00;;;;5049727;28;20230;-78
2021/10/21 02:58:03;;;;;;;3.33;0.75;;;;;17.50;98421.00;;;;5059132;28;20196;-80
2021/10/21 03:00:30;;;;;;;0.77;0.30;;;;;17.50;98427.00;;;;5029159;28;20230;-79
2021/10/21 03:02:57;;;;;;;1.70;0.47;;;;;17.50;98413.00;;;;5028509;28;20195;-80
2021/10/21 03:05:26;;;;;;;3.17;0.43;;;;;17.50;98412.00;;;;5029293;28;20200;-80
2021/10/21 03:07:53;;;;;;;0.82;0.22;;;;;17.50;98415.00;;;;5029829;28;20204;-80
2021/10/21 03:10:20;;;;;;;0.43;0.10;;;;;17.50;98420.00;;;;5048533;28;20243;-80
2021/10/21 03:12:48;;;;;;;1.13;0.38;;;;;17.50;98423.00;;;;5041908;28;20208;-80
2021/10/21 03:15:15;;;;;;;1.05;0.20;;;;;17.50;98423.00;;;;5028699;28;20242;-80
2021/10/21 03:17:42;;;;;;;0.68;0.20;;;;;17.50;98419.00;;;;5029806;28;20204;-80
2021/10/21 03:20:12;;;;;;;1.13;0.30;;;;;17.50;98422.00;;;;5028973;28;20310;-80
2021/10/21 03:22:42;;;;;;;1.27;0.30;;;;;17.50;98431.00;;;;5028978;28;20231;-80
2021/10/21 03:25:11;;;;;;;0.50;0.20;;;;;17.50;98427.00;;;;5032392;28;20191;-80
2021/10/21 03:27:39;;;;;;;0.98;0.43;;;;;17.50;98434.00;;;;5049034;28;20199;-79
2021/10/21 03:30:09;;;;;;;0.82;0.47;;;;;17.50;98412.00;;;;5039406;28;20209;-80
2021/10/21 03:32:37;;;;;;;0.80;0.30;;;;;17.50;98415.00;;;;5044122;28;20688;-80
2021/10/21 03:35:05;;;;;;;0.70;0.20;;;;;17.50;98402.00;;;;5046875;28;20203;-80
2021/10/21 03:37:32;;;;;;;1.77;0.57;;;;;17.50;98411.00;;;;5056648;28;20214;-80
2021/10/21 03:40:01;;;;;;;1.40;0.40;;;;;17.50;98411.00;;;;5052238;28;20218;-80
2021/10/21 03:42:28;;;;;;;1.10;0.52;;;;;17.50;98409.00;;;;5034206;28;20207;-79
2021/10/21 03:44:57;;;;;;;4.55;0.50;;;;;17.50;98408.00;;;;5028682;28;20240;-79
2021/10/21 03:47:24;;;;;;;2.40;0.60;;;;;17.50;98408.00;;;;5038791;28;20755;-80
2021/10/21 03:49:52;;;;;;;1.65;0.63;;;;;17.50;98414.00;;;;5040600;28;20220;-80
2021/10/21 03:52:19;;;;;;;1.08;0.57;;;;;17.50;98409.00;;;;5035417;28;20188;-79
2021/10/21 03:54:47;;;;;;;2.70;0.40;;;;;17.50;98403.00;;;;5028178;28;20207;-80
2021/10/21 03:57:16;;;;;;;2.45;0.40;;;;;17.50;98412.00;;;;5045868;28;20196;-80
2021/10/21 03:59:44;;;;;;;0.90;0.40;;;;;17.50;98417.00;;;;5039089;28;20209;-80
2021/10/21 04:02:11;;;;;;;1.85;0.50;;;;;17.50;98414.00;;;;5028241;28;20238;-80
2021/10/21 04:04:39;;;;;;;0.55;0.30;;;;;17.50;98418.00;;;;5032004;28;20200;-80
2021/10/21 04:07:06;;;;;;;1.92;0.40;;;;;17.50;98412.00;;;;5028665;28;20203;-79
2021/10/21 04:09:33;;;;;;;1.33;0.60;;;;;17.50;98416.00;;;;5042843;28;20200;-79
2021/10/21 04:12:00;;;;;;;1.35;0.52;;;;;17.60;98415.00;;;;5041605;28;20196;-80
2021/10/21 04:14:29;;;;;;;0.60;0.45;;;;;17.60;98413.00;;;;5049650;28;20191;-79
2021/10/21 04:16:56;;;;;;;1.73;0.30;;;;;17.60;98406.00;;;;5049400;28;20207;-80
2021/10/21 04:19:23;;;;;;;0.75;0.40;;;;;17.60;98415.00;;;;5051683;28;20200;-80
2021/10/21 04:21:51;;;;;;;2.60;0.90;;;;;17.60;98428.00;;;;5037508;28;20232;-79
2021/10/21 04:24:18;;;;;;;2.65;0.75;;;;;17.60;98423.00;;;;5031750;28;21441;-80
2021/10/21 04:26:46;;;;;;;1.85;0.50;;;;;17.60;98425.00;;;;5066373;28;20202;-80
2021/10/21 04:29:13;;;;;;;0.77;0.55;;;;;17.60;98436.00;;;;5071213;28;20206;-80
2021/10/21 04:31:42;;;;;;;2.22;0.57;;;;;17.60;98421.00;;;;5071418;28;20202;-80
2021/10/21 04:34:09;;;;;;;1.02;0.47;;;;;17.70;98428.00;;;;5055507;28;20195;-80
2021/10/21 04:36:36;;;;;;;0.93;0.47;;;;;17.60;98428.00;;;;5036598;28;20202;-81
2021/10/21 04:39:03;;;;;;;3.00;0.68;;;;;17.70;98422.00;;;;5033958;28;20200;-79
2021/10/21 04:41:30;;;;;;;2.25;0.85;;;;;17.60;98445.00;;;;5031291;28;20239;-80
2021/10/21 04:43:58;;;;;;;2.08;0.68;;;;;17.70;98445.00;;;;5044117;28;20841;-80
2021/10/21 04:46:25;;;;;;;1.10;0.40;;;;;17.70;98445.00;;;;5065545;28;20195;-80
2021/10/21 04:48:55;;;;;;;3.00;0.60;;;;;17.70;98451.00;;;;5041669;28;20200;-80
2021/10/21 04:51:22;;;;;;;2.80;0.77;;;;;17.70;98459.00;;;;5033396;28;20235;-81
2021/10/21 04:53:49;;;;;;;1.73;0.88;;;;;17.70;98474.00;;;;5050557;28;20200;-81
2021/10/21 04:56:16;;;;;;;1.52;0.77;;;;;17.70;98476.00;;;;5033274;28;20207;-80
2021/10/21 04:58:43;;;;;;;0.88;0.77;;;;;17.70;98488.00;;;;5041273;28;20358;-80
2021/10/21 05:01:11;;;;;;;1.23;0.65;;;;;17.70;98494.00;;;;5042164;28;20219;-80
2021/10/21 05:03:38;;;;;;;1.33;0.77;;;;;17.70;98517.00;;;;5042952;28;20195;-80
2021/10/21 05:06:07;;;;;;;1.25;0.70;;;;;17.70;98523.00;;;;5048709;28;20665;-79
2021/10/21 05:08:34;;;;;;;1.42;0.93;;;;;17.70;98548.00;;;;5043606;28;20203;-79
2021/10/21 05:11:01;;;;;;;1.50;0.75;;;;;17.70;98565.00;;;;5038136;28;20663;-79
2021/10/21 05:13:28;;;;;;;1.45;0.70;;;;;17.70;98582.00;;;;5040240;28;20204;-80
2021/10/21 05:15:56;;;;;;;2.22;0.45;;;;;17.70;98604.00;;;;5031209;28;20211;-79
2021/10/21 05:18:23;;;;;;;0.98;0.60;;;;;17.70;98673.00;;;;5040148;28;20192;-79
2021/10/21 05:20:50;;;;;;;1.63;0.43;;;;;17.60;98670.00;;;;5043953;28;20222;-79
2021/10/21 05:23:19;;;;;;;0.50;0.20;;;;;17.50;98723.00;;;;5045497;28;20199;-82
2021/10/21 05:25:46;;;;;;;0.85;0.20;;;;;17.40;98762.00;;;;5050651;28;20286;-83
2021/10/21 05:28:14;;;;;;;2.15;0.28;;;;;17.30;98769.00;;;;5033338;28;20192;-83
2021/10/21 05:30:41;;;;;;;0.32;0.10;;;;;17.20;98802.00;;;;5038721;28;20223;-82
2021/10/21 05:33:09;;;;;;;0.45;0.20;;;;;17.10;98821.00;;;;5032036;28;20860;-83
2021/10/21 05:35:36;;;;;;;0.40;0.10;;;;;16.90;98827.00;;;;5046646;28;20200;-80
2021/10/21 05:38:03;;;;;;;0.10;0.10;;;;;16.80;98851.00;;;;5049780;28;20207;-79
2021/10/21 05:40:32;;;;;;;0.30;0.20;;;;;16.70;98875.00;;;;5043033;28;20232;-80
2021/10/21 05:42:59;;;;;;;0.40;0.00;;;;;16.70;98891.00;;;;5034038;28;20700;-80
2021/10/21 05:45:26;;;;;;;0.55;0.10;;;;;16.60;98936.00;;;;5047428;28;20199;-79
2021/10/21 05:47:54;;;;;;;1.08;0.30;;;;;16.60;98945.00;;;;5029994;28;20738;-79
2021/10/21 05:50:21;;;;;;;0.47;0.22;;;;;16.60;98968.00;;;;5043740;28;20203;-78
2021/10/21 05:52:48;;;;;;;0.63;0.10;;;;;16.50;98995.00;;;;5043471;28;20203;-78
2021/10/21 05:55:15;;;;;;;1.30;0.20;;;;;16.50;99006.00;;;;5041272;28;20203;-78
2021/10/21 05:57:44;;;;;;;0.50;0.05;;;;;16.40;99015.00;;;;5054488;28;20192;-79
2021/10/21 06:00:12;;;;;;;0.60;0.10;;;;;16.40;99041.00;;;;5035408;28;20224;-80
2021/10/21 06:02:40;;;;;;;1.08;0.28;;;;;16.40;99053.00;;;;5042701;28;20208;-79
2021/10/21 06:05:08;;;;;;;1.63;0.35;;;;;16.30;99070.00;;;;5042429;28;20880;-80
2021/10/21 06:07:35;;;;;;;0.20;0.13;;;;;16.30;99069.00;;;;5038586;28;20203;-81
2021/10/21 06:10:03;;;;;;;0.30;0.10;;;;;16.30;99081.00;;;;5041907;28;20215;-80
2021/10/21 06:12:30;;;;;;;2.72;0.52;;;;;16.30;99101.00;;;;5032901;28;20196;-80
2021/10/21 06:15:02;;;;;;;3.53;0.50;;;;;16.20;99125.00;;;;5032504;28;20224;-79
2021/10/21 06:17:29;;;;;;;1.63;0.38;;;;;16.30;99128.00;;;;5033010;28;20635;-79
2021/10/21 06:19:56;;;;;;;1.02;0.40;;;;;16.30;99156.00;;;;5034532;28;20196;-79
2021/10/21 06:22:24;;;;;;;3.10;0.60;;;;;16.30;99165.00;;;;5027686;28;20230;-79
2021/10/21 06:24:51;;;;;;;1.20;0.13;;;;;16.30;99175.00;;;;5044047;28;20199;-81
2021/10/21 06:27:18;;;;;;;0.68;0.28;;;;;16.30;99180.00;;;;5038252;28;20203;-79
2021/10/21 06:29:45;;;;;;;2.30;0.55;;;;;16.30;99196.00;;;;5029040;28;20200;-79
2021/10/21 06:32:14;;;;;;;1.55;0.47;;;;;16.30;99204.00;;;;5027792;28;20207;-78
2021/10/21 06:34:43;;;;;;;1.00;0.15;;;;;16.30;99218.00;;;;5030990;28;20204;-78
2021/10/21 06:37:11;;;;;;;3.63;0.45;;;;;16.30;99233.00;;;;5044043;28;20207;-79
2021/10/21 06:39:38;;;;;;;1.52;0.20;;;;;16.30;99247.00;;;;5038050;28;20204;-80
2021/10/21 06:42:05;;;;;;;4.05;0.30;;;;;16.30;99254.00;;;;5027247;28;20240;-79
2021/10/21 06:44:32;;;;;;;1.13;0.30;;;;;16.40;99264.00;;;;5029191;28;20216;-79
2021/10/21 06:47:00;;;;;;;4.10;0.82;;;;;16.40;99258.00;;;;5028528;28;20204;-78
2021/10/21 06:49:30;;;;;;;3.15;0.80;;;;;16.40;99267.00;;;;5029352;28;20207;-78
2021/10/21 06:51:57;;;;;;;3.03;0.35;;;;;16.40;99280.00;;;;5028739;28;20278;-78
2021/10/21 06:54:24;;;;;;;1.13;0.35;;;;;16.50;99285.00;;;;5044191;28;20218;-78
2021/10/21 06:56:52;;;;;;;2.45;0.20;;;;;16.50;99297.00;;;;5055033;28;20211;-79
2021/10/21 06:59:19;;;;;;;2.50;0.50;;;;;16.50;99298.00;;;;5047509;28;20195;-80
2021/10/21 07:01:46;;;;;;;3.80;0.80;;;;;16.50;99322.00;;;;5043306;28;20219;-79
2021/10/21 07:04:13;;;;;;;5.07;0.95;;;;;16.50;99337.00;;;;5047319;28;20196;-82
2021/10/21 07:06:42;;;;;;;4.38;0.98;;;;;16.60;99355.00;;;;5029893;28;20192;-82
2021/10/21 07:09:09;;;;;;;4.25;0.60;;;;;16.60;99374.00;;;;5053543;28;20200;-82
2021/10/21 07:11:37;;;;;;;3.83;0.82;;;;;16.60;99395.00;;;;5041436;28;20572;-83
2021/10/21 07:14:04;;;;;;;3.45;0.63;;;;;16.70;99408.00;;;;5045289;28;20191;-83
2021/10/21 07:16:31;;;;;;;4.25;0.70;;;;;16.70;99407.00;;;;5046894;28;20286;-82
2021/10/21 07:18:58;;;;;;;3.33;0.70;;;;;16.70;99428.00;;;;5048478;28;20207;-82
2021/10/21 07:21:26;;;;;;;2.85;0.68;;;;;16.70;99440.00;;;;5048666;28;20701;-81
2021/10/21 07:23:54;;;;;;;3.00;0.68;;;;;16.70;99457.00;;;;5048756;28;20209;-82
2021/10/21 07:26:21;;;;;;;3.08;0.95;;;;;16.70;99463.00;;;;5048714;28;20207;-81
2021/10/21 07:28:49;;;;;;;3.42;0.80;;;;;16.70;99466.00;;;;5034825;28;20204;-81
2021/10/21 07:31:18;;;;;;;3.08;0.60;;;;;16.70;99483.00;;;;5030904;28;20215;-80
2021/10/21 07:33:46;;;;;;;5.13;1.10;;;;;16.60;99497.00;;;;5031018;28;20205;-81
2021/10/21 07:36:13;;;;;;;3.75;0.82;;;;;16.60;99506.00;;;;5035094;28;20229;-80
2021/10/21 07:38:41;;;;;;;3.20;1.10;;;;;16.60;99528.00;;;;5064029;28;20199;-81
2021/10/21 07:41:10;;;;;;;3.22;1.00;;;;;16.60;99533.00;;;;5070316;28;20262;-81
2021/10/21 07:43:38;;;;;;;3.05;0.90;;;;;16.60;99537.00;;;;5073342;28;20199;-82
2021/10/21 07:46:06;;;;;;;4.50;0.95;;;;;16.60;99550.00;;;;5038773;28;20207;-81
2021/10/21 07:48:33;;;;;;;4.10;1.00;;;;;16.60;99557.00;;;;5030842;28;20203;-81
2021/10/21 07:51:00;;;;;;;4.50;0.80;;;;;16.70;99575.00;;;;5031376;28;20208;-82
2021/10/21 07:53:28;;;;;;;5.80;1.50;;;;;16.70;99582.00;;;;5031844;28;20580;-81
2021/10/21 07:55:56;;;;;;;1.50;0.55;;;;;16.70;99598.00;;;;5029368;28;20243;-80
2021/10/21 07:58:24;;;;;;;5.00;1.00;;;;;16.70;99599.00;;;;5029434;28;20204;-80
2021/10/21 08:00:52;;;;;;;5.82;1.13;;;;;16.70;99596.00;;;;5031296;28;20223;-82
2021/10/21 08:03:19;;;;;;;3.55;0.85;;;;;16.80;99614.00;;;;5031537;28;20208;-81
2021/10/21 08:05:47;;;;;;;4.47;0.95;;;;;16.80;99617.00;;;;5030517;28;20200;-81
2021/10/21 08:08:14;;;;;;;6.60;0.90;;;;;16.80;99635.00;;;;5049312;28;20195;-80
2021/10/21 08:10:41;;;;;;;4.70;0.90;;;;;16.80;99633.00;;;;5063273;28;20206;-81
2021/10/21 08:13:11;;;;;;;3.25;0.68;;;;;16.90;99632.00;;;;5074813;28;20203;-81
2021/10/21 08:15:40;;;;;;;3.70;0.75;;;;;16.90;99641.00;;;;5075682;28;20203;-81
2021/10/21 08:18:12;;;;;;;2.97;0.70;;;;;16.90;99629.00;;;;5076704;28;20202;-80
2021/10/21 08:20:40;;;;;;;7.22;2.00;;;;;16.90;99647.00;;;;5035258;28;20231;-81
2021/10/21 08:23:07;;;;;;;2.47;0.70;;;;;17.00;99641.00;;;;5036824;28;20228;-79
2021/10/21 08:25:34;;;;;;;4.40;0.57;;;;;17.00;99656.00;;;;5036902;28;20530;-81
2021/10/21 08:28:01;;;;;;;4.53;0.85;;;;;17.00;99670.00;;;;5036603;28;20200;-80
2021/10/21 08:30:31;;;;;;;1.83;0.55;;;;;17.00;99687.00;;;;5033088;28;20200;-78
2021/10/21 08:33:00;;;;;;;1.25;0.40;;;;;17.10;99702.00;;;;5034583;28;20682;-79
2021/10/21 08:35:29;;;;;;;4.47;0.88;;;;;17.10;99712.00;;;;5038451;28;20201;-80
2021/10/21 08:37:58;;;;;;;6.30;0.88;;;;;17.10;99720.00;;;;5036746;28;20219;-78
2021/10/21 08:40:26;;;;;;;2.65;0.65;;;;;17.00;99723.00;;;;5032480;28;20232;-80
2021/10/21 08:42:53;;;;;;;2.47;1.02;;;;;17.00;99717.00;;;;5030466;28;20224;-80
2021/10/21 08:45:21;;;;;;;0.68;0.30;;;;;17.00;99740.00;;;;5032715;28;20234;-80
2021/10/21 08:47:50;;;;;;;2.90;0.57;;;;;16.90;99746.00;;;;5029769;28;20577;-80
2021/10/21 08:50:19;;;;;;;2.55;0.60;;;;;16.90;99751.00;;;;5028664;28;20200;-79
2021/10/21 08:52:47;;;;;;;2.60;0.50;;;;;16.90;99758.00;;;;5034548;28;20203;-80
2021/10/21 08:55:15;;;;;;;1.92;0.65;;;;;16.90;99759.00;;;;5048219;28;20868;-80
2021/10/21 08:57:43;;;;;;;2.17;0.52;;;;;16.90;99768.00;;;;5052304;28;20203;-80
2021/10/21 09:00:12;;;;;;;2.13;0.85;;;;;16.80;99773.00;;;;5051252;28;20251;-80
2021/10/21 09:02:47;;;;;;;1.30;0.35;;;;;16.80;99781.00;;;;5052193;28;20273;-80
2021/10/21 09:05:25;;;;;;;2.80;0.43;;;;;16.80;99787.00;;;;5053731;28;20196;-79
2021/10/21 09:08:07;;;;;;;1.25;0.30;;;;;16.70;99793.00;;;;5043344;28;20200;-80
2021/10/21 09:10:43;;;;;;;1.67;0.40;;;;;16.80;99793.00;;;;5046743;28;20215;-80
2021/10/21 09:13:19;;;;;;;1.52;0.70;;;;;16.70;99796.00;;;;5054705;28;20191;-80
2021/10/21 09:15:49;;;;;;;1.63;0.50;;;;;16.70;99793.00;;;;5064046;28;20218;-79
2021/10/21 09:18:17;;;;;;;2.00;0.50;;;;;16.70;99802.00;;;;5052834;28;20678;-79
2021/10/21 09:20:47;;;;;;;1.95;0.50;;;;;16.70;99807.00;;;;5053128;28;20739;-80
2021/10/21 09:23:16;;;;;;;1.83;0.50;;;;;16.70;99808.00;;;;5053565;28;20223;-80
2021/10/21 09:25:45;;;;;;;1.70;0.50;;;;;16.70;99812.00;;;;5053368;28;20261;-80
2021/10/21 09:28:21;;;;;;;2.88;0.50;;;;;16.70;99832.00;;;;5035189;28;20757;-80
2021/10/21 09:31:03;;;;;;;2.75;0.85;;;;;16.70;99825.00;;;;5032881;28;20204;-79
2021/10/21 09:33:40;;;;;;;2.22;0.60;;;;;16.80;99831.00;;;;5033128;28;20204;-79
2021/10/21 09:36:10;;;;;;;1.40;0.30;;;;;16.80;99827.00;;;;5045927;28;20199;-79
2021/10/21 09:38:48;;;;;;;3.25;0.50;;;;;16.70;99832.00;;;;5053144;28;20196;-80
2021/10/21 09:41:17;;;;;;;2.22;0.60;;;;;16.80;99833.00;;;;5052458;28;20223;-80
2021/10/21 09:43:45;;;;;;;3.03;0.50;;;;;16.80;99841.00;;;;5054211;28;20199;-80
2021/10/21 09:46:37;;;;;;;3.45;1.00;;;;;16.70;99848.00;;;;5061628;28;20203;-80
2021/10/21 09:49:18;;;;;;;3.55;0.50;;;;;16.70;99846.00;;;;5060851;28;20211;-80
2021/10/21 09:51:48;;;;;;;3.10;0.73;;;;;16.80;99852.00;;;;5061250;28;20217;-79
2021/10/21 09:54:16;;;;;;;1.90;0.57;;;;;16.90;99849.00;;;;5061273;28;20203;-80
2021/10/21 09:57:03;;;;;;;0.80;0.45;;;;;16.80;99865.00;;;;5058316;28;20314;-80
2021/10/21 09:59:31;;;;;;;1.60;0.52;;;;;16.90;99877.00;;;;5062672;28;20207;-80
2021/10/21 10:02:07;;;;;;;7.70;0.40;;;;;16.90;99872.00;;;;5059237;28;20262;-80
2021/10/21 10:04:35;;;;;;;2.13;0.40;;;;;17.00;99883.00;;;;5062388;28;20188;-79
2021/10/21 10:07:04;;;;;;;5.22;0.85;;;;;17.00;99876.00;;;;5067830;28;20235;-79
2021/10/21 10:09:33;;;;;;;2.55;0.70;;;;;17.00;99883.00;;;;5042299;28;20392;-79
2021/10/21 10:12:04;;;;;;;3.60;0.57;;;;;17.00;99895.00;;;;5056915;28;20208;-80
2021/10/21 10:14:31;;;;;;;5.50;0.75;;;;;17.10;99883.00;;;;5052680;28;20204;-79
2021/10/21 10:17:01;;;;;;;2.65;0.70;;;;;17.10;99898.00;;;;5054623;28;20203;-80
2021/10/21 10:19:29;;;;;;;4.75;0.55;;;;;17.10;99898.00;;;;5035689;28;20222;-80
2021/10/21 10:21:58;;;;;;;3.28;0.50;;;;;17.10;99904.00;;;;5062501;28;20227;-79
2021/10/21 10:24:32;;;;;;;2.58;0.88;;;;;17.00;99917.00;;;;5052469;28;20290;-80
2021/10/21 10:26:59;;;;;;;1.30;0.45;;;;;17.00;99921.00;;;;5050929;28;20211;-79
2021/10/21 10:29:45;;;;;;;2.10;0.57;;;;;16.90;99929.00;;;;5049150;28;20207;-79
2021/10/21 10:32:37;;;;;;;5.00;0.90;;;;;16.90;99932.00;;;;5048801;28;20691;-78
2021/10/21 10:35:07;;;;;;;6.80;1.05;;;;;17.00;99939.00;;;;5049131;28;20192;-80
2021/10/21 10:37:42;;;;;;;3.65;0.52;;;;;17.00;99947.00;;;;5044069;28;20192;-79
2021/10/21 10:40:13;;;;;;;1.65;0.57;;;;;17.10;99958.00;;;;5031042;28;20223;-79
2021/10/21 10:43:02;;;;;;;2.20;0.38;;;;;17.10;99957.00;;;;5031325;28;20632;-80
2021/10/21 10:45:40;;;;;;;0.90;0.20;;;;;17.20;99947.00;;;;5032628;28;20200;-81
2021/10/21 10:48:08;;;;;;;1.23;0.32;;;;;17.40;99957.00;;;;5038622;28;20204;-79
2021/10/21 10:50:55;;;;;;;2.90;0.68;;;;;17.50;99957.00;;;;5036317;28;20204;-79
2021/10/21 10:53:48;;;;;;;0.88;0.20;;;;;17.60;99960.00;;;;5055552;28;20669;-78
2021/10/21 10:56:43;;;;;;;3.92;0.50;;;;;17.70;99955.00;;;;5054095;28;20748;-80
2021/10/21 10:59:37;;;;;;;2.88;0.55;;;;;17.80;99962.00;;;;5052387;28;20196;-79
2021/10/21 11:02:30;;;;;;;1.92;0.50;;;;;17.80;99960.00;;;;5017523;28;20227;-80
2021/10/21 11:05:01;;;;;;;2.13;0.60;;;;;18.00;99963.00;;;;5057479;28;20207;-79
2021/10/21 11:07:30;;;;;;;2.40;0.40;;;;;18.00;99949.00;;;;5052538;28;20199;-80
2021/10/21 11:10:30;;;;;;;1.67;0.38;;;;;18.00;99975.00;;;;5036341;28;20585;-79
2021/10/21 11:13:00;;;;;;;4.15;0.32;;;;;18.00;99995.00;;;;5032163;28;20211;-79
2021/10/21 11:15:41;;;;;;;0.80;0.30;;;;;17.90;100032.00;;;;5032595;28;20204;-77
2021/10/21 11:18:09;;;;;;;1.02;0.30;;;;;17.80;100026.00;;;;5030960;28;20243;-84
2021/10/21 11:20:41;;;;;;;2.92;0.52;;;;;17.50;100051.00;;;;5032137;28;20219;-84
2021/10/21 11:23:24;;;;;;;0.98;0.30;;;;;17.30;100082.00;;;;5030683;28;20228;-78
2021/10/21 11:25:55;;;;;;;0.80;0.40;;;;;17.10;100085.00;;;;5039697;28;20205;-83
2021/10/21 11:28:27;;;;;;;1.05;0.10;;;;;16.90;100090.00;;;;5060840;28;20250;-82
2021/10/21 11:30:56;;;;;;;1.48;0.13;;;;;16.80;100102.00;;;;5051843;28;20207;-82
2021/10/21 11:33:23;;;;;;;1.30;0.38;;;;;16.70;100109.00;;;;5052074;28;20238;-82
2021/10/21 11:35:51;;;;;;;0.63;0.15;;;;;16.60;100120.00;;;;5063945;28;20211;-83
2021/10/21 11:38:20;;;;;;;1.58;0.20;;;;;16.50;100119.00;;;;5045419;28;20224;-83
2021/10/21 11:40:49;;;;;;;0.50;0.10;;;;;16.40;100127.00;;;;5030052;28;20227;-82
2021/10/21 11:43:22;;;;;;;1.10;0.30;;;;;16.30;100141.00;;;;5028334;28;20232;-83
2021/10/21 11:45:54;;;;;;;2.38;0.40;;;;;16.20;100149.00;;;;5029617;28;20204;-84
2021/10/21 11:48:24;;;;;;;0.98;0.20;;;;;16.20;100147.00;;;;5031272;28;20242;-79
2021/10/21 11:50:52;;;;;;;1.00;0.22;;;;;16.10;100151.00;;;;5028017;28;20655;-84
2021/10/21 11:53:21;;;;;;;1.98;0.43;;;;;16.10;100152.00;;;;5028594;28;20200;-83
2021/10/21 11:55:56;;;;;;;1.27;0.30;;;;;16.00;100156.00;;;;5029215;28;20224;-84
2021/10/21 11:58:26;;;;;;;1.50;0.22;;;;;16.10;100166.00;;;;5028833;28;20200;-79
2021/10/21 12:00:56;;;;;;;1.17;0.30;;;;;16.00;100172.00;;;;5029262;28;20253;-80
2021/10/21 12:03:31;;;;;;;0.57;0.10;;;;;16.00;100176.00;;;;5028789;28;20243;-80
2021/10/21 12:05:59;;;;;;;3.92;0.25;;;;;16.10;100169.00;;;;5042996;28;20191;-79
2021/10/21 12:08:27;;;;;;;2.42;0.20;;;;;16.10;100176.00;;;;5045304;28;20928;-80
2021/10/21 12:10:59;;;;;;;1.02;0.10;;;;;16.10;100175.00;;;;5046006;28;20200;-83
2021/10/21 12:13:28;;;;;;;1.98;0.52;;;;;16.20;100183.00;;;;5048445;28;20287;-84
2021/10/21 12:16:00;;;;;;;1.67;0.20;;;;;16.20;100189.00;;;;5048098;28;20257;-83
2021/10/21 12:18:30;;;;;;;2.60;0.22;;;;;16.30;100188.00;;;;5028684;28;20670;-83
2021/10/21 12:21:02;;;;;;;0.90;0.13;;;;;16.40;100188.00;;;;5029050;28;20203;-79
2021/10/21 12:23:31;;;;;;;1.13;0.43;;;;;16.40;100193.00;;;;5028342;28;20640;-79
2021/10/21 12:26:00;;;;;;;1.13;0.30;;;;;16.50;100200.00;;;;5036965;28;20195;-79